Time;durP1;ratioP1;P1;durP2;ratioP2;P2;SDS_P1;SDS_P2;PMS_P1;PMS_P2;Temp;Humidity;BMP_temperature;BMP_pressure;BME280_temperature;BME280_humidity;BME280_pressure;Samples;Min_cycle;Max_cycle;Signal;HPM_P1;HPM_P2
2023/07/23 00:04:17;;;;;;;17.10;5.15;;;;;;;;;;10335690;28;20081;-69
2023/07/23 00:09:18;;;;;;;13.90;5.68;;;;;;;;;;10334801;28;20022;-71
2023/07/23 00:14:19;;;;;;;16.30;5.17;;;;;;;;;;10325571;28;20395;-70
2023/07/23 00:19:19;;;;;;;17.27;4.47;;;;;;;;;;10330907;28;20018;-70
2023/07/23 00:24:20;;;;;;;10.73;5.20;;;;;;;;;;10355268;28;20243;-71
2023/07/23 00:29:20;;;;;;;18.33;5.43;;;;;;;;;;10371107;28;20033;-69
2023/07/23 00:34:20;;;;;;;15.63;5.40;;;;;;;;;;10373135;28;20009;-69
2023/07/23 00:39:21;;;;;;;13.80;5.60;;;;;;;;;;10373617;28;20431;-70
2023/07/23 00:44:21;;;;;;;13.43;5.85;;;;;;;;;;10373720;28;20024;-70
2023/07/23 00:49:21;;;;;;;14.57;5.07;;;;;;;;;;10374222;28;20045;-70
2023/07/23 00:54:21;;;;;;;17.65;5.88;;;;;;;;;;10373592;28;20077;-70
2023/07/23 00:59:22;;;;;;;15.43;5.03;;;;;;;;;;10373784;28;20100;-70
2023/07/23 01:04:22;;;;;;;10.67;4.97;;;;;;;;;;10339979;28;20265;-71
2023/07/23 01:09:23;;;;;;;15.60;6.33;;;;;;;;;;10334314;28;20073;-70
2023/07/23 01:14:23;;;;;;;20.88;5.95;;;;;;;;;;10333624;28;20018;-69
2023/07/23 01:19:26;;;;;;;14.65;4.75;;;;;;;;;;10364621;28;20220;-71
2023/07/23 01:24:26;;;;;;;14.63;5.20;;;;;;;;;;10375045;28;20326;-71
2023/07/23 01:29:27;;;;;;;14.43;5.80;;;;;;;;;;10361944;28;20207;-69
2023/07/23 01:34:27;;;;;;;21.37;5.87;;;;;;;;;;10381760;28;20195;-69
2023/07/23 01:39:27;;;;;;;11.57;5.55;;;;;;;;;;10345865;28;20373;-70
2023/07/23 01:44:28;;;;;;;16.10;5.05;;;;;;;;;;10357598;28;20496;-70
2023/07/23 01:49:28;;;;;;;13.98;5.40;;;;;;;;;;10379609;28;20330;-69
2023/07/23 01:54:29;;;;;;;13.35;5.30;;;;;;;;;;10381233;28;20224;-70
2023/07/23 01:59:29;;;;;;;16.20;5.72;;;;;;;;;;10350647;28;20082;-70
2023/07/23 02:04:29;;;;;;;20.45;5.80;;;;;;;;;;10372700;28;20049;-70
2023/07/23 02:09:29;;;;;;;14.57;5.53;;;;;;;;;;10368028;28;20068;-70
2023/07/23 02:14:30;;;;;;;16.55;5.45;;;;;;;;;;10358702;28;20109;-69
2023/07/23 02:19:30;;;;;;;16.10;5.73;;;;;;;;;;10379992;28;20018;-69
2023/07/23 02:24:30;;;;;;;15.70;5.80;;;;;;;;;;10378967;28;20222;-70
2023/07/23 02:29:31;;;;;;;24.02;5.80;;;;;;;;;;10369321;28;20033;-70
2023/07/23 02:34:31;;;;;;;18.77;5.83;;;;;;;;;;10361478;28;20021;-69
2023/07/23 02:39:31;;;;;;;18.63;5.47;;;;;;;;;;10355543;28;20014;-69
2023/07/23 02:44:32;;;;;;;32.05;6.47;;;;;;;;;;10338833;28;20284;-69
2023/07/23 02:49:32;;;;;;;18.23;6.50;;;;;;;;;;10338927;28;20026;-69
2023/07/23 02:54:33;;;;;;;17.13;6.22;;;;;;;;;;10337909;28;20036;-70
2023/07/23 02:59:33;;;;;;;23.13;7.20;;;;;;;;;;10337270;28;20029;-70
2023/07/23 03:04:33;;;;;;;21.33;8.95;;;;;;;;;;10338096;28;20109;-70
2023/07/23 03:09:34;;;;;;;21.83;9.73;;;;;;;;;;10335645;28;20113;-69
2023/07/23 03:14:34;;;;;;;22.17;10.98;;;;;;;;;;10355891;28;20022;-70
2023/07/23 03:19:34;;;;;;;20.15;11.05;;;;;;;;;;10368520;28;20041;-69
2023/07/23 03:24:34;;;;;;;22.50;11.65;;;;;;;;;;10337203;28;20060;-69
2023/07/23 03:29:35;;;;;;;21.17;11.23;;;;;;;;;;10335811;28;20203;-70
2023/07/23 03:34:35;;;;;;;17.52;11.32;;;;;;;;;;10336892;28;20261;-69
2023/07/23 03:39:35;;;;;;;24.08;11.13;;;;;;;;;;10354807;28;20020;-70
2023/07/23 03:44:36;;;;;;;23.67;10.63;;;;;;;;;;10371201;28;20049;-69
2023/07/23 03:49:36;;;;;;;21.53;10.77;;;;;;;;;;10342350;28;20044;-69
2023/07/23 03:54:36;;;;;;;17.80;11.00;;;;;;;;;;10376839;28;20284;-69
2023/07/23 03:59:41;;;;;;;23.40;10.77;;;;;;;;;;10376379;28;20017;-69
2023/07/23 04:04:41;;;;;;;19.42;10.65;;;;;;;;;;10376060;28;20017;-70
2023/07/23 04:09:43;;;;;;;20.23;11.60;;;;;;;;;;10342293;28;20531;-71
2023/07/23 04:14:43;;;;;;;19.15;11.77;;;;;;;;;;10361283;28;20094;-71
2023/07/23 04:19:43;;;;;;;19.23;11.40;;;;;;;;;;10335093;28;20267;-70
2023/07/23 04:24:43;;;;;;;20.83;12.50;;;;;;;;;;10333653;28;20014;-70
2023/07/23 04:29:44;;;;;;;24.20;13.23;;;;;;;;;;10333948;28;20041;-70
2023/07/23 04:34:44;;;;;;;21.63;13.00;;;;;;;;;;10334731;28;20312;-70
2023/07/23 04:39:44;;;;;;;21.73;12.75;;;;;;;;;;10334688;28;20025;-70
2023/07/23 04:44:44;;;;;;;19.92;12.30;;;;;;;;;;10334150;28;20272;-70
2023/07/23 04:49:45;;;;;;;25.52;11.45;;;;;;;;;;10334560;28;20030;-70
2023/07/23 04:54:45;;;;;;;18.65;11.85;;;;;;;;;;10334257;28;20215;-69
2023/07/23 04:59:45;;;;;;;17.27;10.85;;;;;;;;;;10327673;28;20335;-70
2023/07/23 05:04:45;;;;;;;20.80;11.77;;;;;;;;;;10341935;28;20033;-69
2023/07/23 05:09:46;;;;;;;23.08;10.88;;;;;;;;;;10342002;28;20042;-70
2023/07/23 05:14:47;;;;;;;17.88;11.40;;;;;;;;;;10341774;28;20049;-69
2023/07/23 05:19:49;;;;;;;12.95;9.63;;;;;;;;;;10367573;28;20017;-70
2023/07/23 05:24:49;;;;;;;16.05;10.20;;;;;;;;;;10372671;28;20014;-70
2023/07/23 05:29:49;;;;;;;14.68;10.43;;;;;;;;;;10366911;28;20330;-70
2023/07/23 05:34:50;;;;;;;13.02;8.27;;;;;;;;;;10345592;28;20017;-74
2023/07/23 05:39:53;;;;;;;16.03;8.00;;;;;;;;;;10355859;28;20074;-70
2023/07/23 05:44:53;;;;;;;14.57;8.00;;;;;;;;;;10339438;28;20292;-71
2023/07/23 05:49:53;;;;;;;15.68;8.73;;;;;;;;;;10337305;28;20308;-69
2023/07/23 05:54:53;;;;;;;17.15;8.77;;;;;;;;;;10335564;28;20010;-71
2023/07/23 05:59:53;;;;;;;12.85;7.13;;;;;;;;;;10337571;28;20315;-71
2023/07/23 06:04:54;;;;;;;13.02;7.45;;;;;;;;;;10338635;28;20101;-71
2023/07/23 06:09:54;;;;;;;14.38;7.05;;;;;;;;;;10338896;28;20275;-70
2023/07/23 06:14:54;;;;;;;14.13;7.88;;;;;;;;;;10339452;28;20387;-70
2023/07/23 06:19:55;;;;;;;21.25;7.93;;;;;;;;;;10339632;28;20026;-70
2023/07/23 06:24:55;;;;;;;18.05;7.63;;;;;;;;;;10339280;28;20025;-71
2023/07/23 06:29:55;;;;;;;9.70;6.43;;;;;;;;;;10367141;28;20049;-70
2023/07/23 06:34:55;;;;;;;14.55;6.80;;;;;;;;;;10378523;28;20057;-70
2023/07/23 06:39:55;;;;;;;10.70;5.53;;;;;;;;;;10378799;28;20025;-72
2023/07/23 06:44:56;;;;;;;8.45;5.65;;;;;;;;;;10376005;28;20049;-73
2023/07/23 06:49:56;;;;;;;12.10;5.82;;;;;;;;;;10358632;28;20315;-72
2023/07/23 06:54:56;;;;;;;9.90;5.43;;;;;;;;;;10364349;28;20053;-70
2023/07/23 06:59:57;;;;;;;9.52;4.50;;;;;;;;;;10358434;28;20048;-70
2023/07/23 07:04:57;;;;;;;11.90;4.95;;;;;;;;;;10370773;28;20085;-70
2023/07/23 07:09:57;;;;;;;10.80;5.18;;;;;;;;;;10361241;28;20076;-71
2023/07/23 07:14:57;;;;;;;13.10;4.82;;;;;;;;;;10363494;28;20014;-72
2023/07/23 07:19:58;;;;;;;13.90;5.17;;;;;;;;;;10336191;28;20033;-73
2023/07/23 07:24:58;;;;;;;11.40;5.00;;;;;;;;;;10330589;28;20007;-75
2023/07/23 07:29:58;;;;;;;8.70;4.18;;;;;;;;;;10329865;28;20025;-73
2023/07/23 07:34:58;;;;;;;9.23;4.32;;;;;;;;;;10327935;28;20231;-74
2023/07/23 07:39:59;;;;;;;13.27;4.00;;;;;;;;;;10328904;28;20061;-75
2023/07/23 07:44:59;;;;;;;10.52;4.13;;;;;;;;;;10328760;28;20030;-75
2023/07/23 07:50:00;;;;;;;10.53;3.50;;;;;;;;;;10333996;28;20022;-74
2023/07/23 07:55:00;;;;;;;9.27;3.60;;;;;;;;;;10331382;28;20006;-72
2023/07/23 08:00:03;;;;;;;9.35;3.70;;;;;;;;;;10333211;28;20318;-67
2023/07/23 08:05:04;;;;;;;5.13;3.42;;;;;;;;;;10331642;28;20326;-67
2023/07/23 08:10:05;;;;;;;6.20;3.60;;;;;;;;;;10331812;28;20030;-67
2023/07/23 08:15:05;;;;;;;8.35;3.33;;;;;;;;;;10335221;28;20018;-65
2023/07/23 08:20:06;;;;;;;6.72;3.30;;;;;;;;;;10334531;28;20025;-67
2023/07/23 08:25:08;;;;;;;8.32;4.00;;;;;;;;;;10330796;28;20030;-66
2023/07/23 08:30:09;;;;;;;6.63;3.83;;;;;;;;;;10324230;28;20030;-66
2023/07/23 08:35:11;;;;;;;6.30;3.60;;;;;;;;;;10324226;28;20212;-66
2023/07/23 08:40:11;;;;;;;13.13;3.20;;;;;;;;;;10328146;28;20308;-66
2023/07/23 08:45:15;;;;;;;6.80;3.55;;;;;;;;;;10331862;28;20081;-66
2023/07/23 08:50:15;;;;;;;10.23;4.35;;;;;;;;;;10330214;28;20339;-66
2023/07/23 08:55:16;;;;;;;8.27;3.67;;;;;;;;;;10329400;28;20014;-66
2023/07/23 09:00:16;;;;;;;8.10;3.50;;;;;;;;;;10329977;28;20266;-66
2023/07/23 09:05:16;;;;;;;14.30;3.60;;;;;;;;;;10331821;28;20531;-66
2023/07/23 09:10:17;;;;;;;7.20;3.90;;;;;;;;;;10328385;28;20045;-66
2023/07/23 09:15:17;;;;;;;6.20;3.35;;;;;;;;;;10329581;28;20090;-67
2023/07/23 09:20:18;;;;;;;11.73;3.70;;;;;;;;;;10330829;28;20304;-67
2023/07/23 09:25:18;;;;;;;8.73;4.30;;;;;;;;;;10330365;28;20193;-67
2023/07/23 09:30:19;;;;;;;7.40;3.53;;;;;;;;;;10329132;28;20367;-67
2023/07/23 09:35:19;;;;;;;6.03;3.83;;;;;;;;;;10328225;28;20022;-67
2023/07/23 09:40:20;;;;;;;11.70;3.33;;;;;;;;;;10329451;28;20025;-66
2023/07/23 09:45:22;;;;;;;5.18;3.42;;;;;;;;;;10331519;28;20018;-66
2023/07/23 09:50:22;;;;;;;6.65;3.55;;;;;;;;;;10336241;28;20024;-66
2023/07/23 09:55:23;;;;;;;6.13;3.95;;;;;;;;;;10338729;28;20022;-67
2023/07/23 10:00:24;;;;;;;8.53;4.00;;;;;;;;;;10336590;28;20026;-67
2023/07/23 10:05:25;;;;;;;8.48;4.47;;;;;;;;;;10336942;28;20018;-67
2023/07/23 10:10:25;;;;;;;9.77;4.45;;;;;;;;;;10336938;28;20275;-76
2023/07/23 10:15:27;;;;;;;7.85;3.92;;;;;;;;;;10334953;28;20026;-73
2023/07/23 10:20:28;;;;;;;11.93;4.65;;;;;;;;;;10334766;28;20030;-70
2023/07/23 10:25:30;;;;;;;15.70;4.22;;;;;;;;;;10321488;28;20052;-71
2023/07/23 10:30:31;;;;;;;9.82;4.28;;;;;;;;;;10324610;28;20298;-71
2023/07/23 10:35:54;;;;;;;9.13;4.15;;;;;;;;;;10319578;28;20269;-71
2023/07/23 10:40:55;;;;;;;6.95;3.90;;;;;;;;;;10320269;28;20045;-71
2023/07/23 10:46:03;;;;;;;6.68;4.47;;;;;;;;;;10324718;28;20061;-70
2023/07/23 10:51:05;;;;;;;6.45;4.70;;;;;;;;;;10322722;28;20327;-70
2023/07/23 10:56:20;;;;;;;8.38;4.47;;;;;;;;;;10328440;28;20322;-70
2023/07/23 11:01:21;;;;;;;9.57;4.80;;;;;;;;;;10322181;28;20042;-70
2023/07/23 11:06:29;;;;;;;8.02;4.70;;;;;;;;;;10324854;28;20338;-69
2023/07/23 11:11:56;;;;;;;10.38;5.90;;;;;;;;;;10323834;28;20386;-69
2023/07/23 11:16:57;;;;;;;10.52;5.13;;;;;;;;;;10322071;28;20316;-69
2023/07/23 11:21:59;;;;;;;13.38;5.95;;;;;;;;;;10324177;28;20269;-69
2023/07/23 11:27:03;;;;;;;10.45;4.97;;;;;;;;;;10321805;28;20058;-69
2023/07/23 11:32:03;;;;;;;12.43;6.32;;;;;;;;;;10325039;28;20253;-70
2023/07/23 11:37:08;;;;;;;13.45;7.18;;;;;;;;;;10320106;28;20018;-70
2023/07/23 11:42:15;;;;;;;15.70;6.53;;;;;;;;;;10309096;28;20220;-69
2023/07/23 11:47:15;;;;;;;20.85;8.70;;;;;;;;;;10322237;28;20036;-69
2023/07/23 11:52:21;;;;;;;12.50;6.13;;;;;;;;;;10321734;28;20327;-70
2023/07/23 11:57:25;;;;;;;11.93;7.40;;;;;;;;;;10323338;28;20030;-69
2023/07/23 12:02:25;;;;;;;15.55;8.30;;;;;;;;;;10319329;28;20030;-69
2023/07/23 12:07:25;;;;;;;18.05;9.07;;;;;;;;;;10318817;28;20263;-70
2023/07/23 12:12:25;;;;;;;18.92;10.25;;;;;;;;;;10321407;28;20061;-71
2023/07/23 12:17:27;;;;;;;17.40;10.07;;;;;;;;;;10319504;28;20228;-70
2023/07/23 12:22:29;;;;;;;17.00;8.55;;;;;;;;;;10321863;28;20335;-70
2023/07/23 12:27:29;;;;;;;15.93;8.55;;;;;;;;;;10322085;28;20029;-71
2023/07/23 12:32:30;;;;;;;30.95;9.55;;;;;;;;;;10321073;28;20370;-69
2023/07/23 12:37:31;;;;;;;17.15;9.18;;;;;;;;;;10319475;28;20030;-69
2023/07/23 12:42:34;;;;;;;19.25;9.85;;;;;;;;;;10319428;28;20200;-69
2023/07/23 12:47:34;;;;;;;19.80;10.25;;;;;;;;;;10323334;28;20219;-70
2023/07/23 12:52:35;;;;;;;19.48;10.95;;;;;;;;;;10318621;28;20065;-69
2023/07/23 12:57:35;;;;;;;38.88;15.30;;;;;;;;;;10321868;28;20261;-69
2023/07/23 13:02:35;;;;;;;21.65;11.75;;;;;;;;;;10320649;28;20376;-70
2023/07/23 13:07:35;;;;;;;22.85;12.13;;;;;;;;;;10319917;28;20355;-71
2023/07/23 13:12:36;;;;;;;24.63;10.52;;;;;;;;;;10320235;28;20070;-71
2023/07/23 13:17:36;;;;;;;20.10;11.38;;;;;;;;;;10321739;28;20306;-71
2023/07/23 13:22:36;;;;;;;19.30;10.98;;;;;;;;;;10328162;28;20038;-70
2023/07/23 13:27:36;;;;;;;19.50;9.30;;;;;;;;;;10326974;28;20210;-70
2023/07/23 13:32:37;;;;;;;18.02;9.25;;;;;;;;;;10328353;28;20097;-71
2023/07/23 13:37:38;;;;;;;15.90;8.38;;;;;;;;;;10326650;28;20014;-71
2023/07/23 13:42:38;;;;;;;16.55;8.00;;;;;;;;;;10331426;28;20036;-70
2023/07/23 13:47:38;;;;;;;14.25;8.35;;;;;;;;;;10329774;28;20133;-71
2023/07/23 13:52:38;;;;;;;16.10;7.72;;;;;;;;;;10326907;28;20213;-68
2023/07/23 13:57:39;;;;;;;19.77;8.15;;;;;;;;;;10330212;28;20029;-78
2023/07/23 14:02:42;;;;;;;17.60;8.37;;;;;;;;;;10327311;28;20278;-78
2023/07/23 14:07:45;;;;;;;15.50;7.68;;;;;;;;;;10326123;28;20037;-74
2023/07/23 14:12:45;;;;;;;15.60;8.48;;;;;;;;;;10326457;28;20332;-68
2023/07/23 14:17:45;;;;;;;15.88;8.35;;;;;;;;;;10325007;28;20022;-68
2023/07/23 14:22:46;;;;;;;21.75;9.70;;;;;;;;;;10328270;28;20022;-69
2023/07/23 14:27:46;;;;;;;12.87;7.10;;;;;;;;;;10324321;28;20030;-76
2023/07/23 14:32:46;;;;;;;16.85;8.88;;;;;;;;;;10324482;28;20204;-75
2023/07/23 14:37:46;;;;;;;31.92;13.60;;;;;;;;;;10324978;28;20225;-77
2023/07/23 14:42:47;;;;;;;14.38;7.93;;;;;;;;;;10324670;28;20050;-77
2023/07/23 14:47:47;;;;;;;12.82;7.03;;;;;;;;;;10324396;28;20039;-77
2023/07/23 14:52:48;;;;;;;17.83;7.50;;;;;;;;;;10327853;28;20022;-72
2023/07/23 14:57:48;;;;;;;77.35;68.85;;;;;;;;;;10321884;28;20030;-71
2023/07/23 15:02:48;;;;;;;13.40;6.85;;;;;;;;;;10326411;28;20092;-70
2023/07/23 15:07:49;;;;;;;17.45;7.68;;;;;;;;;;10317864;28;20050;-76
2023/07/23 15:12:49;;;;;;;15.47;7.33;;;;;;;;;;10324331;28;20050;-72
2023/07/23 15:17:50;;;;;;;11.37;6.50;;;;;;;;;;10330363;28;20022;-70
2023/07/23 15:22:54;;;;;;;12.35;6.85;;;;;;;;;;10319892;28;20568;-72
2023/07/23 15:27:58;;;;;;;11.63;6.70;;;;;;;;;;10323168;28;20033;-72
2023/07/23 15:32:59;;;;;;;12.52;6.68;;;;;;;;;;10318337;28;20042;-71
2023/07/23 15:37:59;;;;;;;14.60;6.70;;;;;;;;;;10320091;28;20030;-72
2023/07/23 15:43:00;;;;;;;15.10;9.00;;;;;;;;;;10324246;28;20331;-72
2023/07/23 15:48:00;;;;;;;172.15;155.63;;;;;;;;;;10318671;28;20062;-72
2023/07/23 15:53:00;;;;;;;33.30;13.57;;;;;;;;;;10324784;28;20105;-72
2023/07/23 15:58:00;;;;;;;13.60;7.28;;;;;;;;;;10316848;28;20049;-72
2023/07/23 16:03:01;;;;;;;12.23;7.10;;;;;;;;;;10321836;28;20307;-72
2023/07/23 16:08:01;;;;;;;18.25;7.47;;;;;;;;;;10317500;28;20034;-72
2023/07/23 16:13:01;;;;;;;14.87;7.83;;;;;;;;;;10320602;28;20061;-71
2023/07/23 16:18:03;;;;;;;16.10;6.65;;;;;;;;;;10321705;28;20021;-72
2023/07/23 16:23:03;;;;;;;14.23;7.18;;;;;;;;;;10318414;28;20426;-71
2023/07/23 16:28:05;;;;;;;17.00;7.25;;;;;;;;;;10317291;28;20018;-71
2023/07/23 16:33:06;;;;;;;16.42;6.90;;;;;;;;;;10323188;28;20132;-71
2023/07/23 16:38:16;;;;;;;12.32;6.80;;;;;;;;;;10328615;28;20408;-71
2023/07/23 16:43:17;;;;;;;20.35;8.43;;;;;;;;;;10316192;28;20404;-72
2023/07/23 16:48:18;;;;;;;17.13;7.80;;;;;;;;;;10324214;28;20025;-72
2023/07/23 16:53:20;;;;;;;12.80;7.40;;;;;;;;;;10324922;28;20014;-71
2023/07/23 16:58:21;;;;;;;14.57;6.90;;;;;;;;;;10339430;28;20089;-72
2023/07/23 17:03:22;;;;;;;15.40;6.60;;;;;;;;;;10329255;28;20022;-71
2023/07/23 17:08:22;;;;;;;14.27;6.80;;;;;;;;;;10329755;28;20314;-71
2023/07/23 17:13:23;;;;;;;14.82;6.97;;;;;;;;;;10318552;28;20410;-69
2023/07/23 17:18:23;;;;;;;11.82;6.43;;;;;;;;;;10317509;28;20061;-71
2023/07/23 17:23:24;;;;;;;12.27;7.35;;;;;;;;;;10318268;28;20018;-72
2023/07/23 17:28:24;;;;;;;14.90;7.38;;;;;;;;;;10319309;28;20582;-71
2023/07/23 17:33:25;;;;;;;12.17;6.50;;;;;;;;;;10317473;28;20031;-71
2023/07/23 17:38:25;;;;;;;13.07;6.97;;;;;;;;;;10318654;28;20041;-71
2023/07/23 17:43:25;;;;;;;13.98;7.35;;;;;;;;;;10313920;28;20046;-72
2023/07/23 17:48:25;;;;;;;16.58;7.47;;;;;;;;;;10318731;28;20027;-70
2023/07/23 17:53:26;;;;;;;11.90;6.72;;;;;;;;;;10316816;28;20038;-72
2023/07/23 17:58:26;;;;;;;11.07;5.32;;;;;;;;;;10317182;28;20050;-71
2023/07/23 18:03:26;;;;;;;8.63;5.68;;;;;;;;;;10316807;28;20209;-70
2023/07/23 18:08:26;;;;;;;11.55;6.55;;;;;;;;;;10320473;28;20213;-71
2023/07/23 18:13:27;;;;;;;15.35;8.57;;;;;;;;;;10325446;28;20057;-71
2023/07/23 18:18:27;;;;;;;13.93;7.13;;;;;;;;;;10324564;28;20505;-73
2023/07/23 18:23:27;;;;;;;9.40;5.70;;;;;;;;;;10323938;28;20085;-72
2023/07/23 18:28:27;;;;;;;10.88;5.18;;;;;;;;;;10324192;28;20354;-71
2023/07/23 18:33:28;;;;;;;11.47;5.80;;;;;;;;;;10324920;28;20045;-71
2023/07/23 18:38:28;;;;;;;9.93;5.82;;;;;;;;;;10326196;28;20130;-71
2023/07/23 18:43:29;;;;;;;13.70;6.97;;;;;;;;;;10324637;28;20319;-73
2023/07/23 18:48:29;;;;;;;21.05;7.10;;;;;;;;;;10319618;28;20033;-73
2023/07/23 18:53:29;;;;;;;15.30;8.10;;;;;;;;;;10322625;28;20030;-73
2023/07/23 18:58:31;;;;;;;21.25;7.53;;;;;;;;;;10319327;28;20350;-72
2023/07/23 19:03:34;;;;;;;13.70;7.95;;;;;;;;;;10321375;28;20204;-72
2023/07/23 19:08:35;;;;;;;14.55;7.60;;;;;;;;;;10326619;28;20027;-72
2023/07/23 19:13:35;;;;;;;16.52;7.80;;;;;;;;;;10321354;28;20043;-71
2023/07/23 19:18:39;;;;;;;15.63;7.93;;;;;;;;;;10321267;28;20370;-72
2023/07/23 19:23:39;;;;;;;15.50;7.20;;;;;;;;;;10324691;28;20347;-71
2023/07/23 19:28:39;;;;;;;15.83;7.60;;;;;;;;;;10320918;28;20054;-72
2023/07/23 19:33:40;;;;;;;15.75;7.97;;;;;;;;;;10319309;28;20081;-70
2023/07/23 19:38:40;;;;;;;14.68;8.00;;;;;;;;;;10315764;28;20208;-71
2023/07/23 19:43:40;;;;;;;18.45;9.02;;;;;;;;;;10321137;28;20014;-73
2023/07/23 19:48:40;;;;;;;15.32;8.63;;;;;;;;;;10322047;28;20022;-72
2023/07/23 19:53:43;;;;;;;16.80;8.32;;;;;;;;;;10322475;28;20130;-70
2023/07/23 19:58:46;;;;;;;16.17;7.20;;;;;;;;;;10322547;28;20046;-70
2023/07/23 20:03:46;;;;;;;18.27;8.95;;;;;;;;;;10322567;28;20089;-71
2023/07/23 20:08:47;;;;;;;14.50;7.93;;;;;;;;;;10320002;28;20213;-70
2023/07/23 20:13:47;;;;;;;16.95;8.55;;;;;;;;;;10319189;28;20358;-71
2023/07/23 20:18:47;;;;;;;15.13;7.17;;;;;;;;;;10318582;28;20017;-70
2023/07/23 20:23:48;;;;;;;13.67;7.27;;;;;;;;;;10322955;28;20041;-70
2023/07/23 20:28:48;;;;;;;12.37;7.70;;;;;;;;;;10320966;28;20359;-72
2023/07/23 20:33:48;;;;;;;17.13;7.57;;;;;;;;;;10322018;28;20653;-71
2023/07/23 20:38:49;;;;;;;14.33;7.73;;;;;;;;;;10322367;28;20125;-71
2023/07/23 20:43:49;;;;;;;17.50;8.70;;;;;;;;;;10320330;28;20467;-70
2023/07/23 20:48:49;;;;;;;19.85;8.38;;;;;;;;;;10322737;28;20593;-69
2023/07/23 20:53:50;;;;;;;16.25;8.25;;;;;;;;;;10314887;28;20072;-69
2023/07/23 20:58:50;;;;;;;16.73;9.13;;;;;;;;;;10271652;23;20055;-76
2023/07/23 21:03:50;;;;;;;18.08;9.07;;;;;;;;;;10229995;28;20479;-75
2023/07/23 21:08:51;;;;;;;16.20;8.57;;;;;;;;;;10253919;28;20085;-80
2023/07/23 21:13:55;;;;;;;13.48;7.90;;;;;;;;;;10252466;28;20077;-80
2023/07/23 21:18:56;;;;;;;17.10;8.25;;;;;;;;;;10250013;28;20050;-78
2023/07/23 21:23:57;;;;;;;15.95;8.90;;;;;;;;;;10267636;28;20093;-83
2023/07/23 21:28:57;;;;;;;16.35;8.93;;;;;;;;;;10255996;28;20027;-79
2023/07/23 21:33:57;;;;;;;15.90;8.13;;;;;;;;;;10274953;28;20422;-79
2023/07/23 21:38:59;;;;;;;17.88;8.32;;;;;;;;;;10308107;28;20042;-84
2023/07/23 21:43:59;;;;;;;14.18;7.57;;;;;;;;;;10294134;28;20553;-85
2023/07/23 21:49:00;;;;;;;18.40;8.88;;;;;;;;;;10278475;28;20157;-80
2023/07/23 21:54:00;;;;;;;14.13;8.13;;;;;;;;;;10321080;28;20022;-82
2023/07/23 21:59:01;;;;;;;18.30;8.45;;;;;;;;;;10321813;28;20073;-80
2023/07/23 22:04:01;;;;;;;16.40;7.68;;;;;;;;;;10304129;28;20105;-80
2023/07/23 22:09:01;;;;;;;18.50;9.55;;;;;;;;;;10323820;28;20030;-81
2023/07/23 22:14:02;;;;;;;16.27;8.83;;;;;;;;;;10322208;28;20054;-76
2023/07/23 22:19:02;;;;;;;21.33;8.68;;;;;;;;;;10295596;28;20483;-74
2023/07/23 22:24:03;;;;;;;16.67;7.78;;;;;;;;;;10314961;28;20026;-82
2023/07/23 22:29:03;;;;;;;15.90;8.00;;;;;;;;;;10327466;28;20073;-82
2023/07/23 22:34:03;;;;;;;16.75;8.43;;;;;;;;;;10323312;28;20476;-82
2023/07/23 22:39:05;;;;;;;16.48;8.60;;;;;;;;;;10327640;28;20457;-82
2023/07/23 22:44:06;;;;;;;16.55;8.85;;;;;;;;;;10307127;28;20034;-80
2023/07/23 22:49:08;;;;;;;15.25;8.00;;;;;;;;;;10322275;28;20106;-80
2023/07/23 22:54:08;;;;;;;15.75;8.85;;;;;;;;;;10323564;28;20026;-74
2023/07/23 22:59:08;;;;;;;18.58;8.75;;;;;;;;;;10322347;28;20081;-79
2023/07/23 23:04:09;;;;;;;19.08;8.68;;;;;;;;;;10322917;28;20026;-82
2023/07/23 23:09:09;;;;;;;15.27;8.18;;;;;;;;;;10306722;28;20024;-86
2023/07/23 23:14:09;;;;;;;16.47;9.23;;;;;;;;;;10324254;28;20030;-81
2023/07/23 23:19:10;;;;;;;16.03;8.73;;;;;;;;;;10333755;28;20015;-79
2023/07/23 23:24:10;;;;;;;16.75;8.32;;;;;;;;;;10331630;28;20022;-81
2023/07/23 23:29:16;;;;;;;20.08;9.13;;;;;;;;;;10316218;28;20034;-83
2023/07/23 23:34:22;;;;;;;17.50;8.80;;;;;;;;;;10324257;28;20113;-80
2023/07/23 23:39:22;;;;;;;16.98;8.65;;;;;;;;;;10310844;28;20029;-83
2023/07/23 23:44:24;;;;;;;18.05;9.27;;;;;;;;;;10279313;28;20041;-85
2023/07/23 23:49:52;;;;;;;16.95;8.40;;;;;;;;;;10304388;28;20026;-74
2023/07/23 23:54:52;;;;;;;16.38;9.27;;;;;;;;;;10347494;28;20041;-72
2023/07/23 23:59:58;;;;;;;16.40;8.77;;;;;;;;;;10344751;28;20034;-71
